sensor_id;sensor_type;location;lat;lon;timestamp;P1;durP1;ratioP1;P2;durP2;ratioP2
11699;SDS011;5906;51.660;6.674;2023-08-08T00:02:04;8.03;;;4.17;;
11699;SDS011;5906;51.660;6.674;2023-08-08T00:04:32;7.47;;;3.57;;
11699;SDS011;5906;51.660;6.674;2023-08-08T00:07:00;5.73;;;3.97;;
11699;SDS011;5906;51.660;6.674;2023-08-08T00:09:27;5.40;;;3.63;;
11699;SDS011;5906;51.660;6.674;2023-08-08T00:11:54;7.57;;;3.63;;
11699;SDS011;5906;51.660;6.674;2023-08-08T00:14:24;7.67;;;4.03;;
11699;SDS011;5906;51.660;6.674;2023-08-08T00:16:52;8.30;;;4.03;;
11699;SDS011;5906;51.660;6.674;2023-08-08T00:19:19;6.27;;;3.37;;
11699;SDS011;5906;51.660;6.674;2023-08-08T00:21:46;6.00;;;3.57;;
11699;SDS011;5906;51.660;6.674;2023-08-08T00:24:13;4.93;;;3.53;;
11699;SDS011;5906;51.660;6.674;2023-08-08T00:26:40;6.73;;;3.97;;
11699;SDS011;5906;51.660;6.674;2023-08-08T00:29:07;5.97;;;3.67;;
11699;SDS011;5906;51.660;6.674;2023-08-08T00:31:34;5.13;;;3.70;;
11699;SDS011;5906;51.660;6.674;2023-08-08T00:34:01;7.57;;;4.40;;
11699;SDS011;5906;51.660;6.674;2023-08-08T00:36:28;8.23;;;3.97;;
11699;SDS011;5906;51.660;6.674;2023-08-08T00:38:55;5.30;;;3.50;;
11699;SDS011;5906;51.660;6.674;2023-08-08T00:41:22;4.23;;;3.83;;
11699;SDS011;5906;51.660;6.674;2023-08-08T00:43:49;6.23;;;4.20;;
11699;SDS011;5906;51.660;6.674;2023-08-08T00:46:18;6.60;;;4.10;;
11699;SDS011;5906;51.660;6.674;2023-08-08T00:48:48;5.47;;;3.63;;
11699;SDS011;5906;51.660;6.674;2023-08-08T00:51:16;4.90;;;3.70;;
11699;SDS011;5906;51.660;6.674;2023-08-08T00:53:44;5.57;;;3.80;;
11699;SDS011;5906;51.660;6.674;2023-08-08T00:56:13;5.17;;;3.37;;
11699;SDS011;5906;51.660;6.674;2023-08-08T00:58:41;7.00;;;3.30;;
11699;SDS011;5906;51.660;6.674;2023-08-08T01:01:08;7.67;;;3.77;;
11699;SDS011;5906;51.660;6.674;2023-08-08T01:03:35;7.10;;;3.50;;
11699;SDS011;5906;51.660;6.674;2023-08-08T01:06:10;7.30;;;3.80;;
11699;SDS011;5906;51.660;6.674;2023-08-08T01:09:04;6.17;;;3.60;;
11699;SDS011;5906;51.660;6.674;2023-08-08T01:11:39;10.43;;;4.17;;
11699;SDS011;5906;51.660;6.674;2023-08-08T01:14:07;8.47;;;4.53;;
11699;SDS011;5906;51.660;6.674;2023-08-08T01:16:36;5.90;;;3.83;;
11699;SDS011;5906;51.660;6.674;2023-08-08T01:19:04;8.43;;;4.13;;
11699;SDS011;5906;51.660;6.674;2023-08-08T01:21:34;6.53;;;4.23;;
11699;SDS011;5906;51.660;6.674;2023-08-08T01:24:20;5.17;;;3.53;;
11699;SDS011;5906;51.660;6.674;2023-08-08T01:26:48;5.13;;;3.47;;
11699;SDS011;5906;51.660;6.674;2023-08-08T01:29:16;5.73;;;3.70;;
11699;SDS011;5906;51.660;6.674;2023-08-08T01:31:44;12.03;;;4.70;;
11699;SDS011;5906;51.660;6.674;2023-08-08T01:34:11;8.70;;;4.10;;
11699;SDS011;5906;51.660;6.674;2023-08-08T01:36:41;10.53;;;3.70;;
11699;SDS011;5906;51.660;6.674;2023-08-08T01:39:24;7.37;;;3.87;;
11699;SDS011;5906;51.660;6.674;2023-08-08T01:41:54;6.13;;;3.73;;
11699;SDS011;5906;51.660;6.674;2023-08-08T01:44:21;7.80;;;3.50;;
11699;SDS011;5906;51.660;6.674;2023-08-08T01:46:52;6.57;;;3.90;;
11699;SDS011;5906;51.660;6.674;2023-08-08T01:49:20;7.20;;;3.90;;
11699;SDS011;5906;51.660;6.674;2023-08-08T01:51:47;6.07;;;3.90;;
11699;SDS011;5906;51.660;6.674;2023-08-08T01:54:15;9.60;;;3.97;;
11699;SDS011;5906;51.660;6.674;2023-08-08T01:56:42;8.23;;;3.80;;
11699;SDS011;5906;51.660;6.674;2023-08-08T01:59:09;10.10;;;3.80;;
11699;SDS011;5906;51.660;6.674;2023-08-08T02:01:40;7.63;;;4.03;;
11699;SDS011;5906;51.660;6.674;2023-08-08T02:04:07;6.67;;;4.20;;
11699;SDS011;5906;51.660;6.674;2023-08-08T02:06:34;4.87;;;3.80;;
11699;SDS011;5906;51.660;6.674;2023-08-08T02:09:01;7.43;;;4.37;;
11699;SDS011;5906;51.660;6.674;2023-08-08T02:11:28;7.03;;;4.07;;
11699;SDS011;5906;51.660;6.674;2023-08-08T02:13:56;5.50;;;3.60;;
11699;SDS011;5906;51.660;6.674;2023-08-08T02:16:23;5.10;;;3.23;;
11699;SDS011;5906;51.660;6.674;2023-08-08T02:18:50;9.77;;;3.83;;
11699;SDS011;5906;51.660;6.674;2023-08-08T02:21:16;7.10;;;4.23;;
11699;SDS011;5906;51.660;6.674;2023-08-08T02:23:44;8.13;;;4.47;;
11699;SDS011;5906;51.660;6.674;2023-08-08T02:26:10;5.27;;;3.77;;
11699;SDS011;5906;51.660;6.674;2023-08-08T02:28:37;9.90;;;4.00;;
11699;SDS011;5906;51.660;6.674;2023-08-08T02:31:04;6.70;;;3.93;;
11699;SDS011;5906;51.660;6.674;2023-08-08T02:33:31;8.13;;;4.47;;
11699;SDS011;5906;51.660;6.674;2023-08-08T02:35:59;8.30;;;4.20;;
11699;SDS011;5906;51.660;6.674;2023-08-08T02:38:25;14.33;;;3.60;;
11699;SDS011;5906;51.660;6.674;2023-08-08T02:40:52;4.47;;;3.23;;
11699;SDS011;5906;51.660;6.674;2023-08-08T02:43:20;4.70;;;4.17;;
11699;SDS011;5906;51.660;6.674;2023-08-08T02:45:47;10.00;;;4.20;;
11699;SDS011;5906;51.660;6.674;2023-08-08T02:48:14;6.13;;;4.00;;
11699;SDS011;5906;51.660;6.674;2023-08-08T02:50:41;6.90;;;4.10;;
11699;SDS011;5906;51.660;6.674;2023-08-08T02:53:08;12.13;;;4.07;;
11699;SDS011;5906;51.660;6.674;2023-08-08T02:55:36;11.83;;;4.90;;
11699;SDS011;5906;51.660;6.674;2023-08-08T02:58:03;7.80;;;4.03;;
11699;SDS011;5906;51.660;6.674;2023-08-08T03:00:31;7.67;;;3.97;;
11699;SDS011;5906;51.660;6.674;2023-08-08T03:02:58;6.70;;;4.00;;
11699;SDS011;5906;51.660;6.674;2023-08-08T03:05:25;8.07;;;4.20;;
11699;SDS011;5906;51.660;6.674;2023-08-08T03:07:52;10.60;;;4.50;;
11699;SDS011;5906;51.660;6.674;2023-08-08T03:10:19;15.67;;;4.70;;
11699;SDS011;5906;51.660;6.674;2023-08-08T03:12:46;11.40;;;4.90;;
11699;SDS011;5906;51.660;6.674;2023-08-08T03:15:13;11.63;;;4.50;;
11699;SDS011;5906;51.660;6.674;2023-08-08T03:17:40;10.03;;;4.10;;
11699;SDS011;5906;51.660;6.674;2023-08-08T03:20:08;13.43;;;5.00;;
11699;SDS011;5906;51.660;6.674;2023-08-08T03:22:37;10.67;;;6.70;;
11699;SDS011;5906;51.660;6.674;2023-08-08T03:25:04;9.13;;;4.57;;
11699;SDS011;5906;51.660;6.674;2023-08-08T03:27:32;6.70;;;4.33;;
11699;SDS011;5906;51.660;6.674;2023-08-08T03:29:59;10.63;;;4.47;;
11699;SDS011;5906;51.660;6.674;2023-08-08T03:32:26;10.30;;;5.87;;
11699;SDS011;5906;51.660;6.674;2023-08-08T03:34:54;11.43;;;4.87;;
11699;SDS011;5906;51.660;6.674;2023-08-08T03:37:21;9.53;;;4.80;;
11699;SDS011;5906;51.660;6.674;2023-08-08T03:39:48;12.87;;;5.60;;
11699;SDS011;5906;51.660;6.674;2023-08-08T03:42:14;11.03;;;5.70;;
11699;SDS011;5906;51.660;6.674;2023-08-08T03:44:42;11.80;;;5.60;;
11699;SDS011;5906;51.660;6.674;2023-08-08T03:47:11;9.07;;;5.43;;
11699;SDS011;5906;51.660;6.674;2023-08-08T03:49:45;10.93;;;5.37;;
11699;SDS011;5906;51.660;6.674;2023-08-08T03:52:12;10.23;;;4.83;;
11699;SDS011;5906;51.660;6.674;2023-08-08T03:54:40;20.77;;;6.23;;
11699;SDS011;5906;51.660;6.674;2023-08-08T03:57:07;12.50;;;5.90;;
11699;SDS011;5906;51.660;6.674;2023-08-08T03:59:34;9.90;;;5.27;;
11699;SDS011;5906;51.660;6.674;2023-08-08T04:02:01;12.17;;;5.13;;
11699;SDS011;5906;51.660;6.674;2023-08-08T04:04:28;10.97;;;5.53;;
11699;SDS011;5906;51.660;6.674;2023-08-08T04:06:55;15.43;;;5.80;;
11699;SDS011;5906;51.660;6.674;2023-08-08T04:09:23;12.97;;;6.20;;
11699;SDS011;5906;51.660;6.674;2023-08-08T04:11:50;13.33;;;5.67;;
11699;SDS011;5906;51.660;6.674;2023-08-08T04:14:17;11.20;;;5.27;;
11699;SDS011;5906;51.660;6.674;2023-08-08T04:16:44;10.33;;;5.57;;
11699;SDS011;5906;51.660;6.674;2023-08-08T04:19:11;9.87;;;5.67;;
11699;SDS011;5906;51.660;6.674;2023-08-08T04:21:38;13.47;;;5.40;;
11699;SDS011;5906;51.660;6.674;2023-08-08T04:24:05;10.07;;;5.10;;
11699;SDS011;5906;51.660;6.674;2023-08-08T04:26:34;12.47;;;6.17;;
11699;SDS011;5906;51.660;6.674;2023-08-08T04:29:01;10.80;;;5.37;;
11699;SDS011;5906;51.660;6.674;2023-08-08T04:31:29;18.40;;;6.23;;
11699;SDS011;5906;51.660;6.674;2023-08-08T04:33:56;9.27;;;5.40;;
11699;SDS011;5906;51.660;6.674;2023-08-08T04:36:27;7.87;;;4.97;;
11699;SDS011;5906;51.660;6.674;2023-08-08T04:38:55;9.63;;;5.00;;
11699;SDS011;5906;51.660;6.674;2023-08-08T04:41:22;14.60;;;5.33;;
11699;SDS011;5906;51.660;6.674;2023-08-08T04:43:49;12.20;;;5.33;;
11699;SDS011;5906;51.660;6.674;2023-08-08T04:46:17;12.90;;;5.47;;
11699;SDS011;5906;51.660;6.674;2023-08-08T04:48:44;11.60;;;5.73;;
11699;SDS011;5906;51.660;6.674;2023-08-08T04:51:11;18.60;;;6.57;;
11699;SDS011;5906;51.660;6.674;2023-08-08T04:53:39;14.43;;;6.23;;
11699;SDS011;5906;51.660;6.674;2023-08-08T04:56:06;20.83;;;6.30;;
11699;SDS011;5906;51.660;6.674;2023-08-08T04:58:33;13.87;;;6.20;;
11699;SDS011;5906;51.660;6.674;2023-08-08T05:01:00;14.20;;;6.40;;
11699;SDS011;5906;51.660;6.674;2023-08-08T05:03:27;11.83;;;5.83;;
11699;SDS011;5906;51.660;6.674;2023-08-08T05:05:55;10.83;;;5.80;;
11699;SDS011;5906;51.660;6.674;2023-08-08T05:08:22;12.63;;;5.70;;
11699;SDS011;5906;51.660;6.674;2023-08-08T05:10:49;17.17;;;6.30;;
11699;SDS011;5906;51.660;6.674;2023-08-08T05:13:16;15.27;;;6.97;;
11699;SDS011;5906;51.660;6.674;2023-08-08T05:15:43;15.67;;;6.40;;
11699;SDS011;5906;51.660;6.674;2023-08-08T05:18:10;9.17;;;6.17;;
11699;SDS011;5906;51.660;6.674;2023-08-08T05:20:37;18.53;;;7.27;;
11699;SDS011;5906;51.660;6.674;2023-08-08T05:23:04;14.07;;;6.90;;
11699;SDS011;5906;51.660;6.674;2023-08-08T05:25:30;15.00;;;7.20;;
11699;SDS011;5906;51.660;6.674;2023-08-08T05:27:57;13.97;;;7.70;;
11699;SDS011;5906;51.660;6.674;2023-08-08T05:30:24;14.57;;;7.10;;
11699;SDS011;5906;51.660;6.674;2023-08-08T05:32:51;14.73;;;7.50;;
11699;SDS011;5906;51.660;6.674;2023-08-08T05:35:19;19.70;;;9.70;;
11699;SDS011;5906;51.660;6.674;2023-08-08T05:37:46;24.20;;;8.87;;
11699;SDS011;5906;51.660;6.674;2023-08-08T05:40:13;14.80;;;8.10;;
11699;SDS011;5906;51.660;6.674;2023-08-08T05:42:40;20.17;;;9.40;;
11699;SDS011;5906;51.660;6.674;2023-08-08T05:45:07;25.03;;;9.53;;
11699;SDS011;5906;51.660;6.674;2023-08-08T05:47:35;21.87;;;9.20;;
11699;SDS011;5906;51.660;6.674;2023-08-08T05:50:03;22.20;;;9.37;;
11699;SDS011;5906;51.660;6.674;2023-08-08T05:52:30;31.43;;;10.40;;
11699;SDS011;5906;51.660;6.674;2023-08-08T05:54:57;20.83;;;10.00;;
11699;SDS011;5906;51.660;6.674;2023-08-08T05:57:27;25.20;;;10.50;;
11699;SDS011;5906;51.660;6.674;2023-08-08T05:59:54;22.80;;;10.50;;
11699;SDS011;5906;51.660;6.674;2023-08-08T06:02:21;24.23;;;11.20;;
11699;SDS011;5906;51.660;6.674;2023-08-08T06:04:48;19.33;;;11.00;;
11699;SDS011;5906;51.660;6.674;2023-08-08T06:07:15;23.00;;;11.67;;
11699;SDS011;5906;51.660;6.674;2023-08-08T06:09:42;29.33;;;13.50;;
11699;SDS011;5906;51.660;6.674;2023-08-08T06:12:09;28.30;;;11.63;;
11699;SDS011;5906;51.660;6.674;2023-08-08T06:14:36;22.77;;;12.63;;
11699;SDS011;5906;51.660;6.674;2023-08-08T06:17:04;24.73;;;12.53;;
11699;SDS011;5906;51.660;6.674;2023-08-08T06:19:39;22.40;;;12.73;;
11699;SDS011;5906;51.660;6.674;2023-08-08T06:22:06;25.80;;;13.33;;
11699;SDS011;5906;51.660;6.674;2023-08-08T06:24:33;26.13;;;11.60;;
11699;SDS011;5906;51.660;6.674;2023-08-08T06:26:59;21.93;;;11.23;;
11699;SDS011;5906;51.660;6.674;2023-08-08T06:29:26;21.73;;;12.27;;
11699;SDS011;5906;51.660;6.674;2023-08-08T06:31:53;25.53;;;13.07;;
11699;SDS011;5906;51.660;6.674;2023-08-08T06:34:23;19.50;;;12.03;;
11699;SDS011;5906;51.660;6.674;2023-08-08T06:36:50;21.83;;;12.30;;
11699;SDS011;5906;51.660;6.674;2023-08-08T06:39:17;18.03;;;11.87;;
11699;SDS011;5906;51.660;6.674;2023-08-08T06:41:47;20.10;;;12.43;;
11699;SDS011;5906;51.660;6.674;2023-08-08T06:44:14;28.60;;;13.47;;
11699;SDS011;5906;51.660;6.674;2023-08-08T06:46:41;21.10;;;12.20;;
11699;SDS011;5906;51.660;6.674;2023-08-08T06:49:07;23.73;;;13.93;;
11699;SDS011;5906;51.660;6.674;2023-08-08T06:51:35;22.90;;;11.80;;
11699;SDS011;5906;51.660;6.674;2023-08-08T06:54:02;16.87;;;11.50;;
11699;SDS011;5906;51.660;6.674;2023-08-08T06:56:29;22.33;;;11.40;;
11699;SDS011;5906;51.660;6.674;2023-08-08T06:58:56;29.13;;;12.20;;
11699;SDS011;5906;51.660;6.674;2023-08-08T07:01:25;16.30;;;11.17;;
11699;SDS011;5906;51.660;6.674;2023-08-08T07:03:52;20.83;;;10.37;;
11699;SDS011;5906;51.660;6.674;2023-08-08T07:06:19;22.07;;;11.20;;
11699;SDS011;5906;51.660;6.674;2023-08-08T07:08:46;18.07;;;10.73;;
11699;SDS011;5906;51.660;6.674;2023-08-08T07:11:12;27.40;;;12.17;;
11699;SDS011;5906;51.660;6.674;2023-08-08T07:13:40;17.83;;;9.90;;
11699;SDS011;5906;51.660;6.674;2023-08-08T07:16:07;22.80;;;10.20;;
11699;SDS011;5906;51.660;6.674;2023-08-08T07:18:37;15.33;;;8.77;;
11699;SDS011;5906;51.660;6.674;2023-08-08T07:21:04;16.63;;;8.80;;
11699;SDS011;5906;51.660;6.674;2023-08-08T07:23:32;15.43;;;7.63;;
11699;SDS011;5906;51.660;6.674;2023-08-08T07:25:58;16.97;;;7.43;;
11699;SDS011;5906;51.660;6.674;2023-08-08T07:28:25;17.63;;;6.63;;
11699;SDS011;5906;51.660;6.674;2023-08-08T07:30:52;10.40;;;7.00;;
11699;SDS011;5906;51.660;6.674;2023-08-08T07:33:19;9.37;;;6.33;;
11699;SDS011;5906;51.660;6.674;2023-08-08T07:35:46;20.73;;;7.80;;
11699;SDS011;5906;51.660;6.674;2023-08-08T07:38:14;14.30;;;6.10;;
11699;SDS011;5906;51.660;6.674;2023-08-08T07:40:42;14.10;;;6.17;;
11699;SDS011;5906;51.660;6.674;2023-08-08T07:43:10;15.57;;;6.30;;
11699;SDS011;5906;51.660;6.674;2023-08-08T07:45:36;14.77;;;6.10;;
11699;SDS011;5906;51.660;6.674;2023-08-08T07:48:04;9.37;;;5.13;;
11699;SDS011;5906;51.660;6.674;2023-08-08T07:50:31;10.33;;;5.73;;
11699;SDS011;5906;51.660;6.674;2023-08-08T07:52:58;17.73;;;5.20;;
11699;SDS011;5906;51.660;6.674;2023-08-08T07:55:25;19.00;;;6.03;;
11699;SDS011;5906;51.660;6.674;2023-08-08T07:57:52;12.13;;;4.20;;
11699;SDS011;5906;51.660;6.674;2023-08-08T08:00:19;11.97;;;4.27;;
11699;SDS011;5906;51.660;6.674;2023-08-08T08:02:49;8.53;;;4.40;;
11699;SDS011;5906;51.660;6.674;2023-08-08T08:05:16;12.70;;;4.87;;
11699;SDS011;5906;51.660;6.674;2023-08-08T08:07:43;10.30;;;4.10;;
11699;SDS011;5906;51.660;6.674;2023-08-08T08:10:11;7.63;;;3.73;;
11699;SDS011;5906;51.660;6.674;2023-08-08T08:12:40;10.00;;;3.80;;
11699;SDS011;5906;51.660;6.674;2023-08-08T08:15:08;7.00;;;3.80;;
11699;SDS011;5906;51.660;6.674;2023-08-08T08:17:35;7.67;;;3.60;;
11699;SDS011;5906;51.660;6.674;2023-08-08T08:20:02;7.93;;;3.60;;
11699;SDS011;5906;51.660;6.674;2023-08-08T08:22:34;5.80;;;3.50;;
11699;SDS011;5906;51.660;6.674;2023-08-08T08:25:01;13.07;;;4.20;;
11699;SDS011;5906;51.660;6.674;2023-08-08T08:27:28;19.50;;;4.80;;
11699;SDS011;5906;51.660;6.674;2023-08-08T08:29:57;6.33;;;3.57;;
11699;SDS011;5906;51.660;6.674;2023-08-08T08:32:24;7.73;;;4.00;;
11699;SDS011;5906;51.660;6.674;2023-08-08T08:34:51;13.37;;;3.70;;
11699;SDS011;5906;51.660;6.674;2023-08-08T08:37:18;8.70;;;3.47;;
11699;SDS011;5906;51.660;6.674;2023-08-08T08:39:45;14.80;;;2.93;;
11699;SDS011;5906;51.660;6.674;2023-08-08T08:42:11;9.80;;;3.83;;
11699;SDS011;5906;51.660;6.674;2023-08-08T08:44:42;12.47;;;2.70;;
11699;SDS011;5906;51.660;6.674;2023-08-08T08:47:10;16.40;;;3.30;;
11699;SDS011;5906;51.660;6.674;2023-08-08T08:49:39;8.80;;;3.03;;
11699;SDS011;5906;51.660;6.674;2023-08-08T08:52:09;4.70;;;2.90;;
11699;SDS011;5906;51.660;6.674;2023-08-08T08:54:36;4.73;;;2.73;;
11699;SDS011;5906;51.660;6.674;2023-08-08T08:57:03;18.90;;;3.00;;
11699;SDS011;5906;51.660;6.674;2023-08-08T08:59:30;4.67;;;2.83;;
11699;SDS011;5906;51.660;6.674;2023-08-08T09:01:57;6.17;;;2.27;;
11699;SDS011;5906;51.660;6.674;2023-08-08T09:04:24;5.63;;;2.50;;
11699;SDS011;5906;51.660;6.674;2023-08-08T09:06:51;5.70;;;3.10;;
11699;SDS011;5906;51.660;6.674;2023-08-08T09:09:18;5.10;;;2.60;;
11699;SDS011;5906;51.660;6.674;2023-08-08T09:11:53;6.73;;;3.00;;
11699;SDS011;5906;51.660;6.674;2023-08-08T09:14:25;4.90;;;2.20;;
11699;SDS011;5906;51.660;6.674;2023-08-08T09:16:56;11.13;;;2.83;;
11699;SDS011;5906;51.660;6.674;2023-08-08T09:19:24;5.20;;;2.50;;
11699;SDS011;5906;51.660;6.674;2023-08-08T09:21:52;6.50;;;2.70;;
11699;SDS011;5906;51.660;6.674;2023-08-08T09:24:19;5.00;;;2.57;;
11699;SDS011;5906;51.660;6.674;2023-08-08T09:26:46;7.37;;;2.60;;
11699;SDS011;5906;51.660;6.674;2023-08-08T09:29:13;4.77;;;2.50;;
11699;SDS011;5906;51.660;6.674;2023-08-08T09:31:41;5.90;;;2.50;;
11699;SDS011;5906;51.660;6.674;2023-08-08T09:34:08;4.93;;;2.60;;
11699;SDS011;5906;51.660;6.674;2023-08-08T09:36:36;10.90;;;2.93;;
11699;SDS011;5906;51.660;6.674;2023-08-08T09:39:04;8.00;;;3.00;;
11699;SDS011;5906;51.660;6.674;2023-08-08T09:41:31;3.30;;;2.53;;
11699;SDS011;5906;51.660;6.674;2023-08-08T09:43:59;6.50;;;2.80;;
11699;SDS011;5906;51.660;6.674;2023-08-08T09:46:28;6.93;;;2.80;;
11699;SDS011;5906;51.660;6.674;2023-08-08T09:48:57;5.10;;;2.70;;
11699;SDS011;5906;51.660;6.674;2023-08-08T09:51:25;14.80;;;2.93;;
11699;SDS011;5906;51.660;6.674;2023-08-08T09:53:53;11.23;;;2.80;;
11699;SDS011;5906;51.660;6.674;2023-08-08T09:56:21;4.10;;;2.53;;
11699;SDS011;5906;51.660;6.674;2023-08-08T09:58:50;4.97;;;2.80;;
11699;SDS011;5906;51.660;6.674;2023-08-08T10:01:18;3.83;;;2.90;;
11699;SDS011;5906;51.660;6.674;2023-08-08T10:03:46;8.00;;;2.50;;
11699;SDS011;5906;51.660;6.674;2023-08-08T10:06:17;5.07;;;2.50;;
11699;SDS011;5906;51.660;6.674;2023-08-08T10:08:45;3.93;;;2.60;;
11699;SDS011;5906;51.660;6.674;2023-08-08T10:11:12;3.27;;;2.37;;
11699;SDS011;5906;51.660;6.674;2023-08-08T10:13:48;4.53;;;2.23;;
11699;SDS011;5906;51.660;6.674;2023-08-08T10:16:16;5.00;;;2.53;;
11699;SDS011;5906;51.660;6.674;2023-08-08T10:18:45;6.27;;;2.13;;
11699;SDS011;5906;51.660;6.674;2023-08-08T10:21:20;4.33;;;2.03;;
11699;SDS011;5906;51.660;6.674;2023-08-08T10:23:49;5.80;;;2.53;;
11699;SDS011;5906;51.660;6.674;2023-08-08T10:26:29;4.90;;;2.40;;
11699;SDS011;5906;51.660;6.674;2023-08-08T10:29:17;3.93;;;2.30;;
11699;SDS011;5906;51.660;6.674;2023-08-08T10:31:58;6.63;;;2.37;;
11699;SDS011;5906;51.660;6.674;2023-08-08T10:34:37;8.60;;;2.80;;
11699;SDS011;5906;51.660;6.674;2023-08-08T10:37:11;5.60;;;2.63;;
11699;SDS011;5906;51.660;6.674;2023-08-08T10:39:48;4.40;;;2.40;;
11699;SDS011;5906;51.660;6.674;2023-08-08T10:42:18;6.07;;;2.70;;
11699;SDS011;5906;51.660;6.674;2023-08-08T10:44:53;8.57;;;3.20;;
11699;SDS011;5906;51.660;6.674;2023-08-08T10:47:25;7.23;;;2.83;;
11699;SDS011;5906;51.660;6.674;2023-08-08T10:52:54;3.43;;;2.40;;
11699;SDS011;5906;51.660;6.674;2023-08-08T10:55:22;4.13;;;2.13;;
11699;SDS011;5906;51.660;6.674;2023-08-08T11:00:34;4.20;;;2.17;;
11699;SDS011;5906;51.660;6.674;2023-08-08T11:03:02;4.40;;;2.40;;
11699;SDS011;5906;51.660;6.674;2023-08-08T11:05:32;5.57;;;2.30;;
11699;SDS011;5906;51.660;6.674;2023-08-08T11:08:01;4.67;;;2.93;;
11699;SDS011;5906;51.660;6.674;2023-08-08T11:10:29;5.00;;;2.70;;
11699;SDS011;5906;51.660;6.674;2023-08-08T11:13:02;5.70;;;2.50;;
11699;SDS011;5906;51.660;6.674;2023-08-08T11:15:31;3.20;;;2.33;;
11699;SDS011;5906;51.660;6.674;2023-08-08T11:17:59;5.30;;;2.40;;
11699;SDS011;5906;51.660;6.674;2023-08-08T11:20:32;5.10;;;2.47;;
11699;SDS011;5906;51.660;6.674;2023-08-08T11:23:01;6.83;;;2.47;;
11699;SDS011;5906;51.660;6.674;2023-08-08T11:25:31;3.50;;;2.00;;
11699;SDS011;5906;51.660;6.674;2023-08-08T11:27:59;7.60;;;2.40;;
11699;SDS011;5906;51.660;6.674;2023-08-08T11:30:30;4.83;;;2.20;;
11699;SDS011;5906;51.660;6.674;2023-08-08T11:33:00;3.63;;;2.50;;
11699;SDS011;5906;51.660;6.674;2023-08-08T11:35:31;3.03;;;2.40;;
11699;SDS011;5906;51.660;6.674;2023-08-08T11:38:00;2.20;;;1.87;;
11699;SDS011;5906;51.660;6.674;2023-08-08T11:40:28;4.90;;;1.97;;
11699;SDS011;5906;51.660;6.674;2023-08-08T11:42:57;4.40;;;2.00;;
11699;SDS011;5906;51.660;6.674;2023-08-08T11:45:25;3.00;;;2.20;;
11699;SDS011;5906;51.660;6.674;2023-08-08T11:47:53;2.83;;;2.20;;
11699;SDS011;5906;51.660;6.674;2023-08-08T11:50:22;4.57;;;2.10;;
11699;SDS011;5906;51.660;6.674;2023-08-08T11:52:51;3.77;;;2.60;;
11699;SDS011;5906;51.660;6.674;2023-08-08T11:55:20;7.60;;;2.47;;
11699;SDS011;5906;51.660;6.674;2023-08-08T11:57:49;4.30;;;1.77;;
11699;SDS011;5906;51.660;6.674;2023-08-08T12:00:16;13.97;;;2.33;;
11699;SDS011;5906;51.660;6.674;2023-08-08T12:02:44;5.70;;;2.33;;
11699;SDS011;5906;51.660;6.674;2023-08-08T12:05:13;4.93;;;1.80;;
11699;SDS011;5906;51.660;6.674;2023-08-08T12:07:44;5.00;;;2.57;;
11699;SDS011;5906;51.660;6.674;2023-08-08T12:10:15;3.63;;;1.90;;
11699;SDS011;5906;51.660;6.674;2023-08-08T12:12:44;3.97;;;2.37;;
11699;SDS011;5906;51.660;6.674;2023-08-08T12:15:12;6.20;;;2.63;;
11699;SDS011;5906;51.660;6.674;2023-08-08T12:17:42;4.83;;;2.40;;
11699;SDS011;5906;51.660;6.674;2023-08-08T12:20:09;4.50;;;2.50;;
11699;SDS011;5906;51.660;6.674;2023-08-08T12:22:36;5.63;;;2.50;;
11699;SDS011;5906;51.660;6.674;2023-08-08T12:25:03;8.87;;;2.50;;
11699;SDS011;5906;51.660;6.674;2023-08-08T12:27:31;3.30;;;2.10;;
11699;SDS011;5906;51.660;6.674;2023-08-08T12:29:58;4.80;;;2.57;;
11699;SDS011;5906;51.660;6.674;2023-08-08T12:32:25;6.77;;;2.00;;
11699;SDS011;5906;51.660;6.674;2023-08-08T12:34:55;3.67;;;1.97;;
11699;SDS011;5906;51.660;6.674;2023-08-08T12:37:22;3.73;;;2.30;;
11699;SDS011;5906;51.660;6.674;2023-08-08T12:39:50;3.00;;;2.00;;
11699;SDS011;5906;51.660;6.674;2023-08-08T12:42:17;4.30;;;2.47;;
11699;SDS011;5906;51.660;6.674;2023-08-08T12:44:45;8.97;;;2.30;;
11699;SDS011;5906;51.660;6.674;2023-08-08T12:47:13;5.37;;;2.43;;
11699;SDS011;5906;51.660;6.674;2023-08-08T12:49:41;5.63;;;2.10;;
11699;SDS011;5906;51.660;6.674;2023-08-08T12:52:08;5.60;;;2.23;;
11699;SDS011;5906;51.660;6.674;2023-08-08T12:54:35;3.10;;;1.80;;
11699;SDS011;5906;51.660;6.674;2023-08-08T12:57:02;4.50;;;2.10;;
11699;SDS011;5906;51.660;6.674;2023-08-08T12:59:30;6.17;;;2.40;;
11699;SDS011;5906;51.660;6.674;2023-08-08T13:01:57;5.33;;;2.47;;
11699;SDS011;5906;51.660;6.674;2023-08-08T13:04:25;4.90;;;2.80;;
11699;SDS011;5906;51.660;6.674;2023-08-08T13:06:52;7.70;;;2.50;;
11699;SDS011;5906;51.660;6.674;2023-08-08T13:09:20;3.00;;;2.20;;
11699;SDS011;5906;51.660;6.674;2023-08-08T13:11:46;16.43;;;2.63;;
11699;SDS011;5906;51.660;6.674;2023-08-08T13:14:13;4.47;;;2.13;;
11699;SDS011;5906;51.660;6.674;2023-08-08T13:16:40;6.50;;;2.40;;
11699;SDS011;5906;51.660;6.674;2023-08-08T13:19:07;4.53;;;2.30;;
11699;SDS011;5906;51.660;6.674;2023-08-08T13:21:34;4.97;;;2.77;;
11699;SDS011;5906;51.660;6.674;2023-08-08T13:24:01;4.80;;;2.43;;
11699;SDS011;5906;51.660;6.674;2023-08-08T13:26:27;4.50;;;2.27;;
11699;SDS011;5906;51.660;6.674;2023-08-08T13:28:55;7.80;;;2.40;;
11699;SDS011;5906;51.660;6.674;2023-08-08T13:31:21;6.87;;;2.63;;
11699;SDS011;5906;51.660;6.674;2023-08-08T13:33:49;3.03;;;2.30;;
11699;SDS011;5906;51.660;6.674;2023-08-08T13:36:15;4.80;;;3.00;;
11699;SDS011;5906;51.660;6.674;2023-08-08T13:38:42;5.30;;;2.60;;
11699;SDS011;5906;51.660;6.674;2023-08-08T13:41:09;8.33;;;2.67;;
11699;SDS011;5906;51.660;6.674;2023-08-08T13:43:36;5.50;;;2.80;;
11699;SDS011;5906;51.660;6.674;2023-08-08T13:46:03;3.30;;;2.10;;
11699;SDS011;5906;51.660;6.674;2023-08-08T13:48:34;3.80;;;2.33;;
11699;SDS011;5906;51.660;6.674;2023-08-08T13:51:01;6.10;;;2.40;;
11699;SDS011;5906;51.660;6.674;2023-08-08T13:53:28;5.77;;;2.00;;
11699;SDS011;5906;51.660;6.674;2023-08-08T13:55:55;3.80;;;2.00;;
11699;SDS011;5906;51.660;6.674;2023-08-08T13:58:22;6.60;;;1.90;;
11699;SDS011;5906;51.660;6.674;2023-08-08T14:00:49;3.77;;;1.80;;
11699;SDS011;5906;51.660;6.674;2023-08-08T14:03:16;2.70;;;1.83;;
11699;SDS011;5906;51.660;6.674;2023-08-08T14:05:44;8.63;;;1.90;;
11699;SDS011;5906;51.660;6.674;2023-08-08T14:08:11;3.00;;;1.80;;
11699;SDS011;5906;51.660;6.674;2023-08-08T14:10:38;2.53;;;1.80;;
11699;SDS011;5906;51.660;6.674;2023-08-08T14:13:05;1.70;;;1.60;;
11699;SDS011;5906;51.660;6.674;2023-08-08T14:15:32;4.37;;;2.10;;
11699;SDS011;5906;51.660;6.674;2023-08-08T14:18:03;3.20;;;1.77;;
11699;SDS011;5906;51.660;6.674;2023-08-08T14:20:30;5.63;;;2.50;;
11699;SDS011;5906;51.660;6.674;2023-08-08T14:22:57;6.50;;;2.00;;
11699;SDS011;5906;51.660;6.674;2023-08-08T14:25:24;3.93;;;1.90;;
11699;SDS011;5906;51.660;6.674;2023-08-08T14:27:51;6.77;;;2.37;;
11699;SDS011;5906;51.660;6.674;2023-08-08T14:30:18;2.63;;;1.73;;
11699;SDS011;5906;51.660;6.674;2023-08-08T14:32:47;4.50;;;2.30;;
11699;SDS011;5906;51.660;6.674;2023-08-08T14:35:13;9.50;;;2.00;;
11699;SDS011;5906;51.660;6.674;2023-08-08T14:37:40;7.73;;;2.77;;
11699;SDS011;5906;51.660;6.674;2023-08-08T14:40:07;4.27;;;1.70;;
11699;SDS011;5906;51.660;6.674;2023-08-08T14:42:35;6.70;;;1.70;;
11699;SDS011;5906;51.660;6.674;2023-08-08T14:45:02;3.77;;;1.50;;
11699;SDS011;5906;51.660;6.674;2023-08-08T14:47:29;5.30;;;1.93;;
11699;SDS011;5906;51.660;6.674;2023-08-08T14:49:56;3.20;;;1.40;;
11699;SDS011;5906;51.660;6.674;2023-08-08T14:52:24;2.87;;;1.50;;
11699;SDS011;5906;51.660;6.674;2023-08-08T14:54:52;2.57;;;1.50;;
11699;SDS011;5906;51.660;6.674;2023-08-08T14:57:19;2.80;;;1.70;;
11699;SDS011;5906;51.660;6.674;2023-08-08T14:59:47;4.83;;;1.33;;
11699;SDS011;5906;51.660;6.674;2023-08-08T15:02:13;3.10;;;1.43;;
11699;SDS011;5906;51.660;6.674;2023-08-08T15:04:40;2.67;;;1.53;;
11699;SDS011;5906;51.660;6.674;2023-08-08T15:07:07;1.80;;;1.50;;